Terminal Aerodrome Forecast
Issued by NWS

Home | Current Version | Previous Version | Text Only | Print | Product List | Glossary On
Versions: 1 2 3 4 5 6 7 8 9 10 11 12 13 14 15 16 17 18
000
FTUS44 KLUB 171120
TAFCDS
TAF
KCDS 171120Z 1712/1812 34007KT P6SM SKC
     FM180200 15005KT P6SM SCT040 OVC060
      TEMPO 1803/1807 -SHRA=

USA.gov is the U.S. government's official web portal to all federal, state and local government web resources and services.